Time;durP1;ratioP1;P1;durP2;ratioP2;P2;SDS_P1;SDS_P2;PMS_P1;PMS_P2;Temp;Humidity;BMP_temperature;BMP_pressure;BME280_temperature;BME280_humidity;BME280_pressure;Samples;Min_cycle;Max_cycle;Signal;HPM_P1;HPM_P2
2023/12/13 00:02:02;;;;;;;;;;;;;;;3.05;64.73;99719.56;4982739;28;19913;-69
2023/12/13 00:04:27;;;;;;;;;;;;;;;2.96;65.44;99715.50;4989023;28;20012;-68
2023/12/13 00:06:53;;;;;;;;;;;;;;;3.12;65.07;99718.50;4984925;28;20727;-68
2023/12/13 00:09:18;;;;;;;;;;;;;;;3.29;64.23;99707.72;4985684;28;19939;-68
2023/12/13 00:11:43;;;;;;;;;;;;;;;3.26;64.30;99710.38;4972446;28;19917;-69
2023/12/13 00:14:09;;;;;;;;;;;;;;;3.39;64.34;99698.84;4980676;28;20563;-69
2023/12/13 00:16:37;;;;;;;;;;;;;;;3.26;64.17;99707.78;4989048;28;20583;-69
2023/12/13 00:19:02;;;;;;;;;;;;;;;3.36;64.00;99693.75;4979831;28;20414;-69
2023/12/13 00:21:27;;;;;;;;;;;;;;;3.45;63.86;99692.63;4989509;28;20380;-69
2023/12/13 00:23:53;;;;;;;;;;;;;;;3.46;63.89;99690.00;4982583;28;19986;-69
2023/12/13 00:26:18;;;;;;;;;;;;;;;3.32;63.95;99687.00;4987949;28;19913;-69
2023/12/13 00:28:44;;;;;;;;;;;;;;;3.55;63.67;99694.91;4986127;28;19929;-69
2023/12/13 00:31:10;;;;;;;;;;;;;;;3.66;63.33;99684.25;4981164;28;19956;-68
2023/12/13 00:33:36;;;;;;;;;;;;;;;3.56;63.63;99682.81;4987203;28;19935;-72
2023/12/13 00:36:02;;;;;;;;;;;;;;;3.45;63.81;99678.00;4983393;28;19921;-73
2023/12/13 00:38:27;;;;;;;;;;;;;;;3.63;63.56;99683.47;4986716;28;19925;-68
2023/12/13 00:40:53;;;;;;;;;;;;;;;3.44;64.10;99684.03;4981768;28;19913;-68
2023/12/13 00:43:18;;;;;;;;;;;;;;;3.67;63.54;99690.25;4986952;28;19924;-71
2023/12/13 00:45:44;;;;;;;;;;;;;;;3.74;63.14;99684.03;4987781;28;19928;-72
2023/12/13 00:48:09;;;;;;;;;;;;;;;3.67;63.37;99696.28;4984234;28;19925;-66
2023/12/13 00:50:34;;;;;;;;;;;;;;;3.64;63.61;99696.38;4991966;28;19918;-68
2023/12/13 00:53:00;;;;;;;;;;;;;;;3.69;63.64;99697.06;4984045;28;20010;-68
2023/12/13 00:55:25;;;;;;;;;;;;;;;3.81;63.22;99695.88;4990300;28;19923;-68
2023/12/13 00:57:51;;;;;;;;;;;;;;;3.78;63.33;99694.22;4990620;28;19921;-68
2023/12/13 01:00:16;;;;;;;;;;;;;;;3.72;63.59;99701.31;4986571;28;20009;-67
2023/12/13 01:02:42;;;;;;;;;;;;;;;3.81;63.03;99701.03;4988425;28;19925;-67
2023/12/13 01:05:07;;;;;;;;;;;;;;;3.82;63.26;99699.28;4985275;28;19941;-68
2023/12/13 01:07:33;;;;;;;;;;;;;;;3.97;62.99;99693.66;4989396;28;20063;-68
2023/12/13 01:09:58;;;;;;;;;;;;;;;4.05;62.60;99693.38;4987480;28;19949;-67
2023/12/13 01:12:23;;;;;;;;;;;;;;;3.92;62.72;99683.44;4989024;28;20672;-68
2023/12/13 01:14:49;;;;;;;;;;;;;;;3.94;62.91;99691.13;4992351;28;20291;-68
2023/12/13 01:17:14;;;;;;;;;;;;;;;3.99;62.73;99692.69;4983731;28;20999;-68
2023/12/13 01:19:40;;;;;;;;;;;;;;;4.05;62.72;99695.97;4991043;28;20011;-68
2023/12/13 01:22:05;;;;;;;;;;;;;;;4.06;62.57;99689.94;4983966;28;20008;-68
2023/12/13 01:24:30;;;;;;;;;;;;;;;4.07;62.63;99691.59;4991587;28;19918;-68
2023/12/13 01:26:57;;;;;;;;;;;;;;;4.15;62.69;99689.63;4985820;28;19918;-68
2023/12/13 01:29:22;;;;;;;;;;;;;;;4.06;63.11;99690.75;4987800;28;21021;-69
2023/12/13 01:31:48;;;;;;;;;;;;;;;4.12;62.75;99690.56;4991178;28;19918;-71
2023/12/13 01:34:14;;;;;;;;;;;;;;;4.11;62.48;99688.03;4984059;28;19917;-71
2023/12/13 01:36:41;;;;;;;;;;;;;;;4.09;62.90;99685.47;4996891;28;19991;-70
2023/12/13 01:39:07;;;;;;;;;;;;;;;4.11;62.91;99682.84;4975485;28;19917;-70
2023/12/13 01:41:32;;;;;;;;;;;;;;;4.08;62.88;99685.56;4992555;28;19964;-70
2023/12/13 01:43:58;;;;;;;;;;;;;;;4.20;62.85;99687.72;4985862;28;20667;-70
2023/12/13 01:46:23;;;;;;;;;;;;;;;4.01;63.29;99683.16;4988602;28;19947;-70
2023/12/13 01:48:49;;;;;;;;;;;;;;;4.12;63.06;99684.53;4989042;28;20328;-70
2023/12/13 01:51:14;;;;;;;;;;;;;;;4.16;63.21;99687.00;4984829;28;20575;-70
2023/12/13 01:53:40;;;;;;;;;;;;;;;4.19;62.84;99688.63;4989001;28;19932;-69
2023/12/13 01:56:07;;;;;;;;;;;;;;;4.09;62.99;99679.47;4984446;28;19920;-70
2023/12/13 01:58:36;;;;;;;;;;;;;;;4.09;63.18;99684.66;4988438;28;19948;-69
2023/12/13 02:01:02;;;;;;;;;;;;;;;4.05;62.89;99675.28;4984452;28;20690;-73
2023/12/13 02:03:28;;;;;;;;;;;;;;;4.01;62.93;99679.72;4970909;28;19925;-68
2023/12/13 02:05:53;;;;;;;;;;;;;;;3.86;63.36;99673.28;4989706;28;19971;-66
2023/12/13 02:08:18;;;;;;;;;;;;;;;3.82;63.29;99673.44;4982911;28;19925;-67
2023/12/13 02:10:45;;;;;;;;;;;;;;;3.55;63.99;99676.81;4989769;28;20105;-73
2023/12/13 02:13:12;;;;;;;;;;;;;;;3.71;64.01;99678.94;4983162;28;19921;-73
2023/12/13 02:15:38;;;;;;;;;;;;;;;3.71;63.68;99679.78;4989898;28;19921;-73
2023/12/13 02:18:04;;;;;;;;;;;;;;;3.77;63.47;99679.59;4983094;28;19929;-72
2023/12/13 02:20:29;;;;;;;;;;;;;;;3.70;63.80;99679.84;4987758;28;19999;-72
2023/12/13 02:22:55;;;;;;;;;;;;;;;3.71;63.67;99678.94;4990441;28;19927;-72
2023/12/13 02:25:38;;;;;;;;;;;;;;;3.66;63.58;99680.81;4974045;28;19936;-73
2023/12/13 02:28:05;;;;;;;;;;;;;;;3.59;63.90;99681.00;4984209;28;20409;-74
2023/12/13 02:30:31;;;;;;;;;;;;;;;3.49;64.14;99682.19;4986356;28;19929;-73
2023/12/13 02:32:56;;;;;;;;;;;;;;;3.63;64.02;99683.47;4990238;28;19921;-73
2023/12/13 02:35:22;;;;;;;;;;;;;;;3.68;63.71;99686.78;4985284;28;19986;-73
2023/12/13 02:37:49;;;;;;;;;;;;;;;3.63;63.50;99686.94;4977133;28;20331;-73
2023/12/13 02:40:17;;;;;;;;;;;;;;;3.59;63.75;99675.00;4985656;28;20060;-74
2023/12/13 02:42:43;;;;;;;;;;;;;;;3.69;63.56;99680.72;4979718;28;19932;-69
2023/12/13 02:45:12;;;;;;;;;;;;;;;3.71;63.40;99678.94;4986827;28;20462;-72
2023/12/13 02:47:41;;;;;;;;;;;;;;;3.62;63.87;99674.06;4986525;28;20283;-68
2023/12/13 02:50:07;;;;;;;;;;;;;;;3.66;63.65;99675.66;4986409;28;19928;-69
2023/12/13 02:52:32;;;;;;;;;;;;;;;3.62;63.85;99684.38;4987750;28;19917;-76
2023/12/13 02:54:58;;;;;;;;;;;;;;;3.64;63.69;99667.09;4986738;28;20331;-76
2023/12/13 02:57:23;;;;;;;;;;;;;;;3.60;64.08;99676.66;4985027;28;20035;-74
2023/12/13 02:59:48;;;;;;;;;;;;;;;3.56;63.97;99675.94;4993473;28;19917;-74
2023/12/13 03:02:14;;;;;;;;;;;;;;;3.59;64.03;99668.09;4983283;28;20399;-74
2023/12/13 03:04:39;;;;;;;;;;;;;;;3.45;64.22;99672.84;4990870;28;20490;-74
2023/12/13 03:07:04;;;;;;;;;;;;;;;3.47;64.27;99676.22;4983750;28;19913;-75
2023/12/13 03:09:30;;;;;;;;;;;;;;;3.40;64.54;99669.50;4984148;28;19921;-75
2023/12/13 03:11:55;;;;;;;;;;;;;;;3.41;64.49;99668.63;4989444;28;19913;-69
2023/12/13 03:14:21;;;;;;;;;;;;;;;3.50;64.20;99665.78;4979963;28;19944;-68
2023/12/13 03:16:46;;;;;;;;;;;;;;;3.49;64.28;99661.53;4989026;28;19961;-68
2023/12/13 03:19:11;;;;;;;;;;;;;;;3.56;64.27;99672.47;4983706;28;19922;-67
2023/12/13 03:21:37;;;;;;;;;;;;;;;3.55;64.21;99668.22;4988555;28;19917;-68
2023/12/13 03:24:02;;;;;;;;;;;;;;;3.49;64.05;99664.09;4987546;28;19917;-68
2023/12/13 03:26:27;;;;;;;;;;;;;;;3.47;64.17;99655.56;4975059;28;19956;-68
2023/12/13 03:28:53;;;;;;;;;;;;;;;3.45;64.10;99664.22;4987472;28;20376;-67
2023/12/13 03:31:18;;;;;;;;;;;;;;;3.48;64.32;99666.72;4982856;28;20406;-68
2023/12/13 03:33:44;;;;;;;;;;;;;;;3.28;64.53;99659.53;4985655;28;20008;-68
2023/12/13 03:36:13;;;;;;;;;;;;;;;3.41;64.79;99654.88;4983953;28;20329;-67
2023/12/13 03:38:38;;;;;;;;;;;;;;;3.35;64.68;99666.22;4986290;28;20016;-68
2023/12/13 03:41:03;;;;;;;;;;;;;;;3.28;65.10;99668.13;4988002;28;20000;-67
2023/12/13 03:43:29;;;;;;;;;;;;;;;3.37;64.73;99679.94;4983224;28;20084;-68
2023/12/13 03:45:54;;;;;;;;;;;;;;;3.54;64.18;99672.56;4988478;28;19921;-68
2023/12/13 03:48:19;;;;;;;;;;;;;;;3.52;63.82;99669.16;4979936;28;20442;-68
2023/12/13 03:50:45;;;;;;;;;;;;;;;3.45;63.83;99670.25;4988885;28;20506;-75
2023/12/13 03:53:10;;;;;;;;;;;;;;;3.33;64.80;99668.00;4987669;28;19968;-75
2023/12/13 03:55:35;;;;;;;;;;;;;;;3.27;64.54;99657.81;4987654;28;19925;-75
2023/12/13 03:58:01;;;;;;;;;;;;;;;3.44;64.19;99665.94;4986987;28;20720;-75
2023/12/13 04:00:26;;;;;;;;;;;;;;;3.40;64.61;99664.34;4972983;28;19956;-75
2023/12/13 04:02:52;;;;;;;;;;;;;;;3.48;64.04;99661.56;4988092;28;19921;-75
2023/12/13 04:05:17;;;;;;;;;;;;;;;3.33;64.55;99663.69;4986795;28;20373;-75
2023/12/13 04:07:42;;;;;;;;;;;;;;;3.38;64.42;99669.59;4986516;28;19924;-75
2023/12/13 04:10:09;;;;;;;;;;;;;;;3.39;64.49;99662.66;4964085;28;19925;-75
2023/12/13 04:12:34;;;;;;;;;;;;;;;3.32;64.60;99676.66;4987119;28;19960;-74
2023/12/13 04:15:00;;;;;;;;;;;;;;;3.28;64.61;99665.53;4990110;28;19910;-75
2023/12/13 04:17:25;;;;;;;;;;;;;;;3.18;65.12;99667.53;4981384;28;20013;-75
2023/12/13 04:19:51;;;;;;;;;;;;;;;3.32;64.91;99666.34;4990384;28;19964;-75
2023/12/13 04:22:16;;;;;;;;;;;;;;;3.29;64.79;99667.28;4987002;28;19917;-76
2023/12/13 04:24:42;;;;;;;;;;;;;;;3.22;65.12;99670.03;4992971;28;19917;-74
2023/12/13 04:27:08;;;;;;;;;;;;;;;3.33;64.61;99660.25;4968499;28;19917;-77
2023/12/13 04:29:34;;;;;;;;;;;;;;;3.18;65.29;99670.13;4988904;28;19929;-77
2023/12/13 04:31:59;;;;;;;;;;;;;;;3.15;65.27;99675.34;4993453;28;19913;-74
2023/12/13 04:34:24;;;;;;;;;;;;;;;3.20;65.26;99667.47;4984748;28;20375;-66
2023/12/13 04:36:50;;;;;;;;;;;;;;;3.27;64.68;99669.00;4991369;28;20311;-67
2023/12/13 04:39:15;;;;;;;;;;;;;;;3.26;64.74;99676.81;4985559;28;20055;-68
2023/12/13 04:41:40;;;;;;;;;;;;;;;3.24;65.04;99673.41;5005868;28;20295;-67
2023/12/13 04:44:08;;;;;;;;;;;;;;;3.11;65.31;99663.44;4990420;28;19917;-68
2023/12/13 04:46:33;;;;;;;;;;;;;;;3.17;65.11;99668.41;4985924;28;19925;-68
2023/12/13 04:48:59;;;;;;;;;;;;;;;3.11;65.19;99662.56;4989988;28;19921;-68
2023/12/13 04:51:24;;;;;;;;;;;;;;;3.02;65.19;99662.84;4987014;28;19927;-67
2023/12/13 04:53:49;;;;;;;;;;;;;;;3.16;65.20;99666.75;4988011;28;19922;-70
2023/12/13 04:56:15;;;;;;;;;;;;;;;3.14;65.00;99671.09;4986950;28;19917;-70
2023/12/13 04:58:40;;;;;;;;;;;;;;;3.15;65.00;99664.19;4989266;28;19917;-70
2023/12/13 05:01:05;;;;;;;;;;;;;;;3.26;64.46;99669.06;4990932;28;19970;-68
2023/12/13 05:03:31;;;;;;;;;;;;;;;3.18;64.90;99672.72;4981403;28;19921;-70
2023/12/13 05:05:56;;;;;;;;;;;;;;;3.26;64.39;99675.06;4971629;28;19917;-69
2023/12/13 05:08:21;;;;;;;;;;;;;;;3.37;64.12;99669.63;4973272;28;19995;-66
2023/12/13 05:10:47;;;;;;;;;;;;;;;3.21;64.28;99676.09;4988057;28;19964;-66
2023/12/13 05:13:13;;;;;;;;;;;;;;;3.08;64.88;99671.25;4987862;28;19959;-67
2023/12/13 05:15:38;;;;;;;;;;;;;;;3.26;64.39;99674.22;4989776;28;19956;-64
2023/12/13 05:18:04;;;;;;;;;;;;;;;3.21;64.04;99674.34;4988928;28;21416;-64
2023/12/13 05:20:29;;;;;;;;;;;;;;;3.16;64.25;99682.22;4987173;28;19917;-69
2023/12/13 05:22:55;;;;;;;;;;;;;;;3.19;64.43;99679.56;4971796;28;19925;-68
2023/12/13 05:25:20;;;;;;;;;;;;;;;3.31;63.80;99675.78;4986888;28;19917;-68
2023/12/13 05:27:45;;;;;;;;;;;;;;;3.28;63.79;99681.03;4987360;28;19921;-70
2023/12/13 05:30:11;;;;;;;;;;;;;;;3.31;63.75;99680.13;4990553;28;19921;-68
2023/12/13 05:32:36;;;;;;;;;;;;;;;3.36;63.94;99683.44;4983737;28;19975;-69
2023/12/13 05:35:02;;;;;;;;;;;;;;;3.33;63.93;99683.50;4989021;28;20502;-68
2023/12/13 05:37:27;;;;;;;;;;;;;;;3.38;63.65;99681.63;4985203;28;20407;-68
2023/12/13 05:39:53;;;;;;;;;;;;;;;3.36;63.43;99684.28;4989860;28;20562;-67
2023/12/13 05:42:18;;;;;;;;;;;;;;;3.54;62.94;99682.88;4985151;28;20555;-66
2023/12/13 05:44:46;;;;;;;;;;;;;;;3.52;63.24;99682.09;4988998;28;19921;-67
2023/12/13 05:47:12;;;;;;;;;;;;;;;3.42;63.48;99688.41;4989597;28;19944;-65
2023/12/13 05:49:37;;;;;;;;;;;;;;;3.42;63.80;99683.22;4983749;28;19921;-66
2023/12/13 05:52:02;;;;;;;;;;;;;;;3.42;63.57;99683.22;4992123;28;19917;-65
2023/12/13 05:54:28;;;;;;;;;;;;;;;3.32;63.94;99692.16;4985162;28;19921;-68
2023/12/13 05:56:53;;;;;;;;;;;;;;;3.44;63.66;99690.94;4986079;28;19913;-68
2023/12/13 05:59:19;;;;;;;;;;;;;;;3.37;63.66;99700.63;4985653;28;19921;-68
2023/12/13 06:01:44;;;;;;;;;;;;;;;3.45;63.37;99685.75;4989006;28;19929;-68
2023/12/13 06:04:09;;;;;;;;;;;;;;;3.39;63.72;99693.66;4986383;28;19944;-68
2023/12/13 06:06:35;;;;;;;;;;;;;;;3.29;63.89;99693.09;4984463;28;19964;-67
2023/12/13 06:09:00;;;;;;;;;;;;;;;3.47;63.32;99696.88;4990882;28;19917;-66
2023/12/13 06:11:25;;;;;;;;;;;;;;;3.51;63.52;99693.28;4987883;28;19918;-67
2023/12/13 06:13:51;;;;;;;;;;;;;;;3.55;63.11;99694.91;4985675;28;19967;-66
2023/12/13 06:16:16;;;;;;;;;;;;;;;3.36;63.74;99693.75;4985118;28;19925;-66
2023/12/13 06:18:41;;;;;;;;;;;;;;;3.46;63.25;99705.50;4987646;28;19992;-67
2023/12/13 06:21:07;;;;;;;;;;;;;;;3.50;63.15;99695.94;4989297;28;19917;-70
2023/12/13 06:23:32;;;;;;;;;;;;;;;3.49;62.88;99702.84;4985893;28;20022;-67
2023/12/13 06:25:58;;;;;;;;;;;;;;;3.35;63.75;99704.97;4987934;28;19951;-66
2023/12/13 06:28:23;;;;;;;;;;;;;;;3.45;63.33;99708.13;4984832;28;20447;-65
2023/12/13 06:30:49;;;;;;;;;;;;;;;3.38;63.49;99708.31;4984213;28;19917;-66
2023/12/13 06:33:16;;;;;;;;;;;;;;;3.25;63.91;99716.41;4989325;28;19929;-68
2023/12/13 06:35:42;;;;;;;;;;;;;;;3.16;64.04;99713.22;4987274;28;19913;-65
2023/12/13 06:38:08;;;;;;;;;;;;;;;3.28;63.53;99716.34;4984296;28;20524;-65
2023/12/13 06:40:33;;;;;;;;;;;;;;;3.42;63.49;99709.06;4984827;28;19921;-65
2023/12/13 06:42:58;;;;;;;;;;;;;;;3.46;62.97;99712.41;4966380;28;19922;-66
2023/12/13 06:45:24;;;;;;;;;;;;;;;3.51;63.19;99713.97;4981375;28;19921;-67
2023/12/13 06:47:51;;;;;;;;;;;;;;;3.43;63.11;99715.09;4979966;28;19979;-66
2023/12/13 06:50:17;;;;;;;;;;;;;;;3.33;63.34;99720.50;4986523;28;20355;-65
2023/12/13 06:52:43;;;;;;;;;;;;;;;3.30;63.48;99722.34;4972509;28;20012;-65
2023/12/13 06:55:09;;;;;;;;;;;;;;;3.34;63.50;99722.22;5003993;28;19910;-65
2023/12/13 06:57:35;;;;;;;;;;;;;;;3.33;63.62;99727.41;4983367;28;19992;-66
2023/12/13 07:00:00;;;;;;;;;;;;;;;3.34;63.78;99731.69;4982833;28;20387;-65
2023/12/13 07:02:25;;;;;;;;;;;;;;;3.32;63.79;99725.72;4982128;28;20062;-67
2023/12/13 07:04:51;;;;;;;;;;;;;;;3.37;63.39;99731.59;4985098;28;19924;-66
2023/12/13 07:07:16;;;;;;;;;;;;;;;3.33;63.37;99725.66;4970714;28;19971;-68
2023/12/13 07:09:45;;;;;;;;;;;;;;;3.23;63.56;99728.53;4984432;28;19980;-74
2023/12/13 07:12:11;;;;;;;;;;;;;;;3.27;63.73;99731.00;5004698;28;19949;-73
2023/12/13 07:14:36;;;;;;;;;;;;;;;3.38;63.30;99734.16;4982678;28;19964;-67
2023/12/13 07:17:03;;;;;;;;;;;;;;;3.34;63.33;99734.28;4984518;28;20398;-67
2023/12/13 07:19:29;;;;;;;;;;;;;;;3.44;63.18;99740.88;4982807;28;19924;-71
2023/12/13 07:21:54;;;;;;;;;;;;;;;3.38;63.48;99734.16;4986255;28;19960;-69
2023/12/13 07:24:20;;;;;;;;;;;;;;;3.27;63.45;99735.28;4982390;28;19924;-71
2023/12/13 07:26:46;;;;;;;;;;;;;;;3.26;63.67;99739.63;4999903;28;19917;-72
2023/12/13 07:29:11;;;;;;;;;;;;;;;3.22;63.48;99737.16;4987456;28;19921;-67
2023/12/13 07:31:40;;;;;;;;;;;;;;;3.29;63.76;99742.16;4982131;28;19927;-68
2023/12/13 07:34:06;;;;;;;;;;;;;;;3.25;63.54;99748.28;4984929;28;20024;-67
2023/12/13 07:36:31;;;;;;;;;;;;;;;3.24;63.86;99743.13;4981957;28;20142;-66
2023/12/13 07:38:57;;;;;;;;;;;;;;;3.15;63.72;99747.66;4982615;28;19917;-67
2023/12/13 07:41:23;;;;;;;;;;;;;;;3.19;63.85;99751.84;4985387;28;19966;-67
2023/12/13 07:43:48;;;;;;;;;;;;;;;3.30;63.34;99754.19;4966962;28;19921;-71
2023/12/13 07:46:14;;;;;;;;;;;;;;;3.18;63.31;99757.91;4971351;28;19917;-75
2023/12/13 07:48:41;;;;;;;;;;;;;;;3.01;64.11;99765.25;4980829;28;20547;-73
2023/12/13 07:51:07;;;;;;;;;;;;;;;3.12;63.88;99765.81;4987982;28;19986;-73
2023/12/13 07:53:33;;;;;;;;;;;;;;;3.13;63.81;99769.25;4983029;28;19925;-70
2023/12/13 07:55:58;;;;;;;;;;;;;;;3.02;64.16;99766.94;4989287;28;20529;-70
2023/12/13 07:58:24;;;;;;;;;;;;;;;3.09;63.78;99772.78;4987062;28;19925;-71
2023/12/13 08:00:49;;;;;;;;;;;;;;;2.91;64.03;99768.94;4994334;28;19916;-68
2023/12/13 08:03:15;;;;;;;;;;;;;;;3.04;63.79;99772.91;5000547;28;20481;-69
2023/12/13 08:05:40;;;;;;;;;;;;;;;2.93;64.44;99782.66;4990422;28;20211;-69
2023/12/13 08:08:05;;;;;;;;;;;;;;;3.14;63.90;99783.88;4990038;28;19999;-65
2023/12/13 08:10:31;;;;;;;;;;;;;;;3.04;64.09;99777.22;4973367;28;20375;-65
2023/12/13 08:12:56;;;;;;;;;;;;;;;3.18;63.70;99791.50;4990721;28;19943;-65
2023/12/13 08:15:21;;;;;;;;;;;;;;;3.24;63.38;99787.03;4991848;28;19924;-65
2023/12/13 08:17:47;;;;;;;;;;;;;;;3.30;63.42;99784.31;4987052;28;19921;-66
2023/12/13 08:20:12;;;;;;;;;;;;;;;3.18;63.33;99794.06;4988662;28;19937;-66
2023/12/13 08:22:38;;;;;;;;;;;;;;;3.17;63.78;99787.19;4987200;28;19999;-66
2023/12/13 08:25:03;;;;;;;;;;;;;;;3.28;63.16;99797.25;4970491;28;20361;-70
2023/12/13 08:27:28;;;;;;;;;;;;;;;3.31;62.99;99797.19;4966218;28;20518;-66
2023/12/13 08:29:54;;;;;;;;;;;;;;;3.28;62.87;99804.16;4971233;28;20590;-65
2023/12/13 08:32:19;;;;;;;;;;;;;;;3.13;63.23;99797.66;4973239;28;19948;-65
2023/12/13 08:34:45;;;;;;;;;;;;;;;3.16;63.45;99806.16;4953441;28;20274;-68
2023/12/13 08:37:11;;;;;;;;;;;;;;;3.16;63.08;99801.00;4972081;28;19910;-66
2023/12/13 08:39:36;;;;;;;;;;;;;;;3.05;63.40;99807.34;4987432;28;20530;-66
2023/12/13 08:42:01;;;;;;;;;;;;;;;3.04;63.73;99806.47;4992474;28;20034;-66
2023/12/13 08:44:27;;;;;;;;;;;;;;;3.18;63.28;99809.56;4991151;28;19921;-66
2023/12/13 08:46:53;;;;;;;;;;;;;;;2.96;63.13;99818.75;4994044;28;19939;-66
2023/12/13 08:49:19;;;;;;;;;;;;;;;2.91;63.51;99815.41;4992099;28;19921;-66
2023/12/13 08:51:44;;;;;;;;;;;;;;;2.96;63.64;99827.34;4989837;28;20772;-66
2023/12/13 08:54:10;;;;;;;;;;;;;;;2.96;63.68;99829.06;4987691;28;20138;-65
2023/12/13 08:56:35;;;;;;;;;;;;;;;2.90;63.77;99824.06;4987035;28;19924;-66
2023/12/13 08:59:01;;;;;;;;;;;;;;;2.96;63.72;99829.06;4988178;28;19932;-66
2023/12/13 09:01:26;;;;;;;;;;;;;;;3.08;63.43;99836.50;4991138;28;20354;-66
2023/12/13 09:03:52;;;;;;;;;;;;;;;2.99;63.40;99839.31;4990350;28;19928;-65
2023/12/13 09:06:18;;;;;;;;;;;;;;;2.98;63.04;99842.78;4991014;28;19920;-66
2023/12/13 09:08:44;;;;;;;;;;;;;;;2.85;64.04;99836.25;4983202;28;19921;-66
2023/12/13 09:11:10;;;;;;;;;;;;;;;3.05;63.47;99844.31;4987158;28;20538;-66
2023/12/13 09:13:36;;;;;;;;;;;;;;;3.00;62.90;99846.16;4984312;28;19943;-66
2023/12/13 09:16:02;;;;;;;;;;;;;;;2.82;63.73;99847.47;4969420;28;20000;-65
2023/12/13 09:18:27;;;;;;;;;;;;;;;3.04;63.33;99854.69;4985476;28;19933;-66
2023/12/13 09:20:52;;;;;;;;;;;;;;;3.04;63.15;99850.34;4976321;28;19970;-66
2023/12/13 09:23:24;;;;;;;;;;;;;;;3.11;62.76;99853.63;4987154;28;20277;-66
2023/12/13 09:25:50;;;;;;;;;;;;;;;3.02;63.27;99857.28;4983568;28;19936;-67
2023/12/13 09:28:16;;;;;;;;;;;;;;;2.94;62.99;99866.97;4986238;28;19936;-67
2023/12/13 09:30:42;;;;;;;;;;;;;;;2.83;63.41;99858.66;4983991;28;19928;-66
2023/12/13 09:33:07;;;;;;;;;;;;;;;2.88;63.41;99867.13;4987718;28;21238;-66
2023/12/13 09:35:32;;;;;;;;;;;;;;;2.65;63.77;99867.69;4983563;28;19925;-66
2023/12/13 09:38:00;;;;;;;;;;;;;;;2.61;64.21;99864.31;4985734;28;20403;-67
2023/12/13 09:40:25;;;;;;;;;;;;;;;2.72;63.28;99861.47;4986611;28;19936;-66
2023/12/13 09:42:52;;;;;;;;;;;;;;;2.68;63.89;99871.00;4982943;28;19922;-66
2023/12/13 09:45:21;;;;;;;;;;;;;;;2.67;63.67;99877.06;4985808;28;19913;-65
2023/12/13 09:47:49;;;;;;;;;;;;;;;2.81;63.71;99881.06;4978689;28;19918;-66
2023/12/13 09:50:14;;;;;;;;;;;;;;;2.63;63.70;99877.19;4986814;28;19921;-68
2023/12/13 09:52:41;;;;;;;;;;;;;;;2.49;64.06;99880.09;4981441;28;19944;-66
2023/12/13 09:55:07;;;;;;;;;;;;;;;2.57;64.15;99885.91;4985350;28;20380;-66
2023/12/13 09:57:33;;;;;;;;;;;;;;;2.73;63.76;99879.53;4980973;28;19956;-66
2023/12/13 09:59:58;;;;;;;;;;;;;;;2.67;63.89;99887.41;4986307;28;20506;-66
2023/12/13 10:02:23;;;;;;;;;;;;;;;2.62;63.94;99896.94;4981999;28;19917;-67
2023/12/13 10:04:51;;;;;;;;;;;;;;;2.39;64.61;99888.88;4982847;28;20561;-66
2023/12/13 10:07:17;;;;;;;;;;;;;;;2.57;64.06;99891.06;4982385;28;19917;-66
2023/12/13 10:09:43;;;;;;;;;;;;;;;2.49;64.60;99893.81;4981789;28;19928;-67
2023/12/13 10:12:08;;;;;;;;;;;;;;;2.51;64.29;99897.22;4966180;28;19996;-66
2023/12/13 10:14:34;;;;;;;;;;;;;;;2.93;63.29;99893.66;4983625;28;20414;-70
2023/12/13 10:17:00;;;;;;;;;;;;;;;2.51;64.06;99896.34;4985991;28;19917;-65
2023/12/13 10:19:26;;;;;;;;;;;;;;;2.52;63.92;99892.91;4985289;28;19996;-67
2023/12/13 10:21:52;;;;;;;;;;;;;;;2.67;64.03;99895.13;4983219;28;20396;-66
2023/12/13 10:24:20;;;;;;;;;;;;;;;2.73;63.52;99910.47;4982601;28;19932;-67
2023/12/13 10:26:46;;;;;;;;;;;;;;;2.57;63.93;99909.13;4980513;28;20454;-66
2023/12/13 10:29:11;;;;;;;;;;;;;;;2.82;63.74;99903.38;4983934;28;20024;-66
2023/12/13 10:31:37;;;;;;;;;;;;;;;2.77;63.35;99909.50;4983727;28;19917;-66
2023/12/13 10:34:02;;;;;;;;;;;;;;;2.73;63.67;99915.66;4971428;28;20565;-66
2023/12/13 10:36:28;;;;;;;;;;;;;;;2.81;63.18;99910.28;5002901;28;20011;-65
2023/12/13 10:38:54;;;;;;;;;;;;;;;2.86;63.26;99910.19;4983073;28;19965;-66
2023/12/13 10:41:27;;;;;;;;;;;;;;;2.81;63.31;99912.03;4989492;28;20396;-65
2023/12/13 10:43:57;;;;;;;;;;;;;;;2.80;63.30;99912.91;4983497;28;19948;-66
2023/12/13 10:46:25;;;;;;;;;;;;;;;2.99;62.67;99916.75;4988838;28;19925;-66
2023/12/13 10:48:52;;;;;;;;;;;;;;;2.89;62.83;99920.44;4964670;28;19982;-67
2023/12/13 10:51:18;;;;;;;;;;;;;;;2.91;62.81;99928.97;4986216;28;19932;-66
2023/12/13 10:53:44;;;;;;;;;;;;;;;2.82;63.01;99929.19;4982365;28;19921;-66
2023/12/13 10:56:10;;;;;;;;;;;;;;;2.87;63.11;99935.13;4984936;28;19951;-66
2023/12/13 10:58:36;;;;;;;;;;;;;;;2.80;63.29;99931.84;4980006;28;19921;-66
2023/12/13 11:01:02;;;;;;;;;;;;;;;2.82;62.74;99935.19;4985669;28;20265;-66
2023/12/13 11:03:33;;;;;;;;;;;;;;;2.84;62.69;99941.19;4981888;28;20344;-64
2023/12/13 11:06:02;;;;;;;;;;;;;;;2.93;62.59;99942.72;4984705;28;19917;-67
2023/12/13 11:08:36;;;;;;;;;;;;;;;3.00;62.41;99944.25;4981533;28;19921;-66
2023/12/13 11:11:05;;;;;;;;;;;;;;;2.73;62.84;99946.59;4985997;28;19921;-66
2023/12/13 11:13:30;;;;;;;;;;;;;;;2.82;62.80;99949.84;4982629;28;20383;-67
2023/12/13 11:15:57;;;;;;;;;;;;;;;2.61;63.38;99952.03;4981050;28;19917;-67
2023/12/13 11:18:25;;;;;;;;;;;;;;;2.50;63.55;99949.66;4981887;28;20766;-66
2023/12/13 11:20:58;;;;;;;;;;;;;;;2.74;62.51;99957.78;4982497;28;19917;-67
2023/12/13 11:23:25;;;;;;;;;;;;;;;2.52;63.29;99960.81;4984284;28;20008;-66
2023/12/13 11:25:50;;;;;;;;;;;;;;;2.58;63.25;99967.59;4982867;28;20446;-68
2023/12/13 11:28:20;;;;;;;;;;;;;;;2.28;63.53;99967.31;4981906;28;19921;-66
2023/12/13 11:30:46;;;;;;;;;;;;;;;2.39;63.52;99972.25;4978311;28;20070;-67
2023/12/13 11:33:11;;;;;;;;;;;;;;;2.61;63.60;99962.34;4985180;28;20652;-66
2023/12/13 11:35:37;;;;;;;;;;;;;;;2.54;63.45;99973.69;4979592;28;19913;-67
2023/12/13 11:38:03;;;;;;;;;;;;;;;2.37;63.81;99973.19;4984114;28;19944;-66
2023/12/13 11:40:28;;;;;;;;;;;;;;;2.56;63.10;99971.91;4982697;28;19956;-66
2023/12/13 11:42:54;;;;;;;;;;;;;;;2.60;63.12;99976.13;4981088;28;19970;-66
2023/12/13 11:45:20;;;;;;;;;;;;;;;2.69;62.91;99985.38;4983472;28;19917;-66
2023/12/13 11:47:46;;;;;;;;;;;;;;;2.45;63.05;99986.78;4970143;28;19922;-66
2023/12/13 11:50:13;;;;;;;;;;;;;;;2.54;63.11;99986.59;4984524;28;19937;-67
2023/12/13 11:52:39;;;;;;;;;;;;;;;2.59;62.94;99995.06;4980461;28;20592;-65
2023/12/13 11:55:06;;;;;;;;;;;;;;;2.50;63.27;99988.38;4982557;28;19909;-66
2023/12/13 11:57:32;;;;;;;;;;;;;;;2.81;62.36;99994.63;4978060;28;20008;-67
2023/12/13 11:59:57;;;;;;;;;;;;;;;2.76;62.74;99992.97;4980416;28;19918;-67
2023/12/13 12:02:22;;;;;;;;;;;;;;;2.64;62.54;99998.38;4982086;28;19917;-66
2023/12/13 12:04:48;;;;;;;;;;;;;;;2.68;62.46;100000.03;4978925;28;19925;-67
2023/12/13 12:07:17;;;;;;;;;;;;;;;2.63;62.56;100001.03;4982845;28;19940;-66
2023/12/13 12:09:49;;;;;;;;;;;;;;;2.54;62.58;99997.75;4980608;28;19921;-67
2023/12/13 12:12:15;;;;;;;;;;;;;;;2.41;62.79;100010.94;4973676;28;20466;-65
2023/12/13 12:14:43;;;;;;;;;;;;;;;2.63;62.65;100007.03;4977703;28;19948;-66
2023/12/13 12:17:09;;;;;;;;;;;;;;;2.45;63.08;100007.41;4981531;28;19917;-65
2023/12/13 12:19:34;;;;;;;;;;;;;;;2.47;63.01;100015.97;4982828;28;19933;-66
2023/12/13 12:22:01;;;;;;;;;;;;;;;2.52;62.74;100014.13;4978611;28;19922;-66
2023/12/13 12:24:29;;;;;;;;;;;;;;;2.56;62.38;100013.19;4982961;28;19917;-65
2023/12/13 12:27:05;;;;;;;;;;;;;;;2.55;62.45;100019.22;4979043;28;19917;-66
2023/12/13 12:29:31;;;;;;;;;;;;;;;2.09;63.66;100025.28;4981989;28;19925;-66
2023/12/13 12:31:56;;;;;;;;;;;;;;;2.11;63.08;100024.38;4978573;28;19922;-67
2023/12/13 12:34:21;;;;;;;;;;;;;;;2.09;63.55;100022.72;4981575;28;19940;-66
2023/12/13 12:36:46;;;;;;;;;;;;;;;2.28;62.92;100024.03;4979778;28;19925;-67
2023/12/13 12:39:12;;;;;;;;;;;;;;;2.28;63.25;100021.47;4982969;28;19991;-66
2023/12/13 12:41:37;;;;;;;;;;;;;;;2.27;63.49;100024.94;4984236;28;19926;-66
2023/12/13 12:44:04;;;;;;;;;;;;;;;2.35;62.86;100027.34;4980257;28;19922;-66
2023/12/13 12:46:29;;;;;;;;;;;;;;;2.16;63.42;100026.88;4985243;28;19925;-66
2023/12/13 12:48:55;;;;;;;;;;;;;;;2.13;63.31;100030.34;4981324;28;20325;-67